sensor_id;sensor_type;location;lat;lon;timestamp;temperature;humidity
21551;DHT22;10936;49.836;7.078;2022-09-09T00:04:33;23.10;97.60
21551;DHT22;10936;49.836;7.078;2022-09-09T00:10:16;23.00;97.70
21551;DHT22;10936;49.836;7.078;2022-09-09T00:16:11;23.00;97.80
21551;DHT22;10936;49.836;7.078;2022-09-09T00:21:08;22.90;97.80
21551;DHT22;10936;49.836;7.078;2022-09-09T00:23:48;22.90;97.90
21551;DHT22;10936;49.836;7.078;2022-09-09T00:28:52;23.00;97.80
21551;DHT22;10936;49.836;7.078;2022-09-09T00:31:25;23.00;97.90
21551;DHT22;10936;49.836;7.078;2022-09-09T00:33:53;23.00;97.90
21551;DHT22;10936;49.836;7.078;2022-09-09T00:36:23;23.00;97.90
21551;DHT22;10936;49.836;7.078;2022-09-09T00:38:57;23.00;97.80
21551;DHT22;10936;49.836;7.078;2022-09-09T00:41:40;23.00;97.80
21551;DHT22;10936;49.836;7.078;2022-09-09T00:44:34;23.00;97.80
21551;DHT22;10936;49.836;7.078;2022-09-09T00:56:13;22.80;98.00
21551;DHT22;10936;49.836;7.078;2022-09-09T00:58:43;22.80;98.00
21551;DHT22;10936;49.836;7.078;2022-09-09T01:01:13;22.80;98.00
21551;DHT22;10936;49.836;7.078;2022-09-09T01:03:51;22.80;98.00
21551;DHT22;10936;49.836;7.078;2022-09-09T01:06:33;22.80;98.00
21551;DHT22;10936;49.836;7.078;2022-09-09T01:09:24;22.80;98.00
21551;DHT22;10936;49.836;7.078;2022-09-09T01:14:40;22.90;97.80
21551;DHT22;10936;49.836;7.078;2022-09-09T01:17:26;22.80;97.80
21551;DHT22;10936;49.836;7.078;2022-09-09T01:23:10;22.80;97.80
21551;DHT22;10936;49.836;7.078;2022-09-09T01:28:25;22.80;97.90
21551;DHT22;10936;49.836;7.078;2022-09-09T01:30:51;22.80;97.90
21551;DHT22;10936;49.836;7.078;2022-09-09T01:33:18;22.70;97.90
21551;DHT22;10936;49.836;7.078;2022-09-09T01:36:08;22.80;97.90
21551;DHT22;10936;49.836;7.078;2022-09-09T01:38:35;22.90;97.90
21551;DHT22;10936;49.836;7.078;2022-09-09T01:41:01;22.90;97.70
21551;DHT22;10936;49.836;7.078;2022-09-09T01:43:28;23.00;97.70
21551;DHT22;10936;49.836;7.078;2022-09-09T01:45:56;23.00;97.60
21551;DHT22;10936;49.836;7.078;2022-09-09T01:48:24;23.10;97.50
21551;DHT22;10936;49.836;7.078;2022-09-09T01:50:50;23.10;97.50
21551;DHT22;10936;49.836;7.078;2022-09-09T01:53:18;23.10;97.50
21551;DHT22;10936;49.836;7.078;2022-09-09T02:01:26;23.10;97.50
21551;DHT22;10936;49.836;7.078;2022-09-09T02:03:57;23.10;97.50
21551;DHT22;10936;49.836;7.078;2022-09-09T02:08:57;23.00;97.50
21551;DHT22;10936;49.836;7.078;2022-09-09T02:11:27;23.10;97.50
21551;DHT22;10936;49.836;7.078;2022-09-09T02:14:00;23.10;97.50
21551;DHT22;10936;49.836;7.078;2022-09-09T02:16:32;23.00;97.40
21551;DHT22;10936;49.836;7.078;2022-09-09T02:21:32;23.00;97.50
21551;DHT22;10936;49.836;7.078;2022-09-09T02:24:04;23.00;97.50
21551;DHT22;10936;49.836;7.078;2022-09-09T02:26:32;22.90;97.60
21551;DHT22;10936;49.836;7.078;2022-09-09T02:29:01;22.90;97.70
21551;DHT22;10936;49.836;7.078;2022-09-09T02:31:27;22.90;97.70
21551;DHT22;10936;49.836;7.078;2022-09-09T02:33:59;22.90;97.60
21551;DHT22;10936;49.836;7.078;2022-09-09T02:36:29;22.90;97.60
21551;DHT22;10936;49.836;7.078;2022-09-09T02:38:56;22.90;97.60
21551;DHT22;10936;49.836;7.078;2022-09-09T02:41:31;22.90;97.50
21551;DHT22;10936;49.836;7.078;2022-09-09T02:43:57;22.90;97.60
21551;DHT22;10936;49.836;7.078;2022-09-09T02:49:06;22.90;97.60
21551;DHT22;10936;49.836;7.078;2022-09-09T02:54:28;22.90;97.50
21551;DHT22;10936;49.836;7.078;2022-09-09T02:57:04;23.00;97.50
21551;DHT22;10936;49.836;7.078;2022-09-09T02:59:32;22.90;97.60
21551;DHT22;10936;49.836;7.078;2022-09-09T03:01:57;22.90;97.60
21551;DHT22;10936;49.836;7.078;2022-09-09T03:04:23;22.90;97.60
21551;DHT22;10936;49.836;7.078;2022-09-09T03:06:50;22.90;97.70
21551;DHT22;10936;49.836;7.078;2022-09-09T03:09:16;22.80;97.70
21551;DHT22;10936;49.836;7.078;2022-09-09T03:11:41;22.80;97.80
21551;DHT22;10936;49.836;7.078;2022-09-09T03:14:07;22.80;98.10
21551;DHT22;10936;49.836;7.078;2022-09-09T03:16:34;22.70;97.90
21551;DHT22;10936;49.836;7.078;2022-09-09T03:19:00;22.70;97.90
21551;DHT22;10936;49.836;7.078;2022-09-09T03:21:26;22.70;97.90
21551;DHT22;10936;49.836;7.078;2022-09-09T03:23:52;22.70;97.80
21551;DHT22;10936;49.836;7.078;2022-09-09T03:26:17;22.70;97.90
21551;DHT22;10936;49.836;7.078;2022-09-09T03:28:44;22.70;97.90
21551;DHT22;10936;49.836;7.078;2022-09-09T03:31:10;22.70;97.90
21551;DHT22;10936;49.836;7.078;2022-09-09T03:33:37;22.70;97.90
21551;DHT22;10936;49.836;7.078;2022-09-09T03:36:03;22.80;97.80
21551;DHT22;10936;49.836;7.078;2022-09-09T03:38:29;22.80;97.80
21551;DHT22;10936;49.836;7.078;2022-09-09T03:40:56;22.80;97.90
21551;DHT22;10936;49.836;7.078;2022-09-09T03:43:26;22.80;97.90
21551;DHT22;10936;49.836;7.078;2022-09-09T03:45:53;22.80;97.80
21551;DHT22;10936;49.836;7.078;2022-09-09T03:48:22;22.80;97.90
21551;DHT22;10936;49.836;7.078;2022-09-09T03:50:50;22.80;97.90
21551;DHT22;10936;49.836;7.078;2022-09-09T03:53:19;22.80;97.80
21551;DHT22;10936;49.836;7.078;2022-09-09T03:55:45;22.80;97.90
21551;DHT22;10936;49.836;7.078;2022-09-09T03:58:13;22.70;98.00
21551;DHT22;10936;49.836;7.078;2022-09-09T04:00:39;22.70;98.00
21551;DHT22;10936;49.836;7.078;2022-09-09T04:03:09;22.70;97.90
21551;DHT22;10936;49.836;7.078;2022-09-09T04:05:35;22.70;98.00
21551;DHT22;10936;49.836;7.078;2022-09-09T04:08:05;22.60;98.40
21551;DHT22;10936;49.836;7.078;2022-09-09T04:10:31;22.70;98.10
21551;DHT22;10936;49.836;7.078;2022-09-09T04:12:57;22.70;98.10
21551;DHT22;10936;49.836;7.078;2022-09-09T04:15:22;22.70;98.00
21551;DHT22;10936;49.836;7.078;2022-09-09T04:17:48;22.70;98.00
21551;DHT22;10936;49.836;7.078;2022-09-09T04:20:14;22.70;98.10
21551;DHT22;10936;49.836;7.078;2022-09-09T04:22:39;22.60;98.20
21551;DHT22;10936;49.836;7.078;2022-09-09T04:25:06;22.60;98.20
21551;DHT22;10936;49.836;7.078;2022-09-09T04:27:32;22.60;98.10
21551;DHT22;10936;49.836;7.078;2022-09-09T04:29:57;22.70;98.00
21551;DHT22;10936;49.836;7.078;2022-09-09T04:32:24;22.60;98.10
21551;DHT22;10936;49.836;7.078;2022-09-09T04:34:52;22.60;98.10
21551;DHT22;10936;49.836;7.078;2022-09-09T04:37:18;22.70;98.10
21551;DHT22;10936;49.836;7.078;2022-09-09T04:39:44;22.70;98.00
21551;DHT22;10936;49.836;7.078;2022-09-09T04:42:10;22.70;97.90
21551;DHT22;10936;49.836;7.078;2022-09-09T04:44:38;22.70;97.90
21551;DHT22;10936;49.836;7.078;2022-09-09T04:47:04;22.70;98.00
21551;DHT22;10936;49.836;7.078;2022-09-09T04:49:30;22.70;97.90
21551;DHT22;10936;49.836;7.078;2022-09-09T04:51:56;22.70;97.90
21551;DHT22;10936;49.836;7.078;2022-09-09T04:54:22;22.70;97.90
21551;DHT22;10936;49.836;7.078;2022-09-09T04:56:50;22.70;97.90
21551;DHT22;10936;49.836;7.078;2022-09-09T04:59:16;22.70;97.90
21551;DHT22;10936;49.836;7.078;2022-09-09T05:01:41;22.70;97.90
21551;DHT22;10936;49.836;7.078;2022-09-09T05:04:07;22.70;97.90
21551;DHT22;10936;49.836;7.078;2022-09-09T05:06:34;22.70;97.90
21551;DHT22;10936;49.836;7.078;2022-09-09T05:09:02;22.70;97.90
21551;DHT22;10936;49.836;7.078;2022-09-09T05:11:32;22.70;98.00
21551;DHT22;10936;49.836;7.078;2022-09-09T05:13:58;22.80;98.00
21551;DHT22;10936;49.836;7.078;2022-09-09T05:16:24;22.60;98.10
21551;DHT22;10936;49.836;7.078;2022-09-09T05:18:50;22.50;98.30
21551;DHT22;10936;49.836;7.078;2022-09-09T05:21:20;22.40;98.50
21551;DHT22;10936;49.836;7.078;2022-09-09T05:23:46;22.30;98.60
21551;DHT22;10936;49.836;7.078;2022-09-09T05:26:14;22.30;98.80
21551;DHT22;10936;49.836;7.078;2022-09-09T05:28:40;22.20;98.80
21551;DHT22;10936;49.836;7.078;2022-09-09T05:31:07;22.20;99.20
21551;DHT22;10936;49.836;7.078;2022-09-09T05:33:34;22.10;99.00
21551;DHT22;10936;49.836;7.078;2022-09-09T05:36:19;22.10;99.10
21551;DHT22;10936;49.836;7.078;2022-09-09T05:38:45;21.90;99.10
21551;DHT22;10936;49.836;7.078;2022-09-09T05:41:12;22.00;99.30
21551;DHT22;10936;49.836;7.078;2022-09-09T05:43:38;22.00;99.20
21551;DHT22;10936;49.836;7.078;2022-09-09T05:46:05;22.00;99.30
21551;DHT22;10936;49.836;7.078;2022-09-09T05:48:32;21.90;99.30
21551;DHT22;10936;49.836;7.078;2022-09-09T05:50:59;21.80;99.50
21551;DHT22;10936;49.836;7.078;2022-09-09T05:53:28;21.80;99.60
21551;DHT22;10936;49.836;7.078;2022-09-09T05:56:05;21.80;99.60
21551;DHT22;10936;49.836;7.078;2022-09-09T05:58:32;21.80;99.60
21551;DHT22;10936;49.836;7.078;2022-09-09T06:01:13;21.80;99.60
21551;DHT22;10936;49.836;7.078;2022-09-09T06:03:40;21.80;99.70
21551;DHT22;10936;49.836;7.078;2022-09-09T06:06:08;21.70;99.80
21551;DHT22;10936;49.836;7.078;2022-09-09T06:08:36;21.70;99.90
21551;DHT22;10936;49.836;7.078;2022-09-09T06:13:32;21.80;99.90
21551;DHT22;10936;49.836;7.078;2022-09-09T06:15:58;21.80;99.90
21551;DHT22;10936;49.836;7.078;2022-09-09T06:18:24;21.80;99.90
21551;DHT22;10936;49.836;7.078;2022-09-09T06:20:59;21.80;99.90
21551;DHT22;10936;49.836;7.078;2022-09-09T06:23:27;21.80;99.90
21551;DHT22;10936;49.836;7.078;2022-09-09T06:26:11;21.80;99.90
21551;DHT22;10936;49.836;7.078;2022-09-09T06:28:37;21.80;99.90
21551;DHT22;10936;49.836;7.078;2022-09-09T06:31:07;21.80;99.90
21551;DHT22;10936;49.836;7.078;2022-09-09T06:33:35;21.80;99.90
21551;DHT22;10936;49.836;7.078;2022-09-09T06:36:03;21.80;99.90
21551;DHT22;10936;49.836;7.078;2022-09-09T06:38:29;21.80;99.90
21551;DHT22;10936;49.836;7.078;2022-09-09T06:40:57;21.90;99.90
21551;DHT22;10936;49.836;7.078;2022-09-09T06:43:23;21.90;99.90
21551;DHT22;10936;49.836;7.078;2022-09-09T06:45:56;21.90;99.90
21551;DHT22;10936;49.836;7.078;2022-09-09T06:48:22;21.80;99.90
21551;DHT22;10936;49.836;7.078;2022-09-09T06:50:48;21.90;99.90
21551;DHT22;10936;49.836;7.078;2022-09-09T06:53:18;21.90;99.90
21551;DHT22;10936;49.836;7.078;2022-09-09T06:55:45;21.90;99.90
21551;DHT22;10936;49.836;7.078;2022-09-09T06:58:10;22.00;99.70
21551;DHT22;10936;49.836;7.078;2022-09-09T07:00:36;22.00;99.50
21551;DHT22;10936;49.836;7.078;2022-09-09T07:03:05;22.00;99.70
21551;DHT22;10936;49.836;7.078;2022-09-09T07:05:31;21.90;99.90
21551;DHT22;10936;49.836;7.078;2022-09-09T07:07:57;21.90;99.90
21551;DHT22;10936;49.836;7.078;2022-09-09T07:10:24;21.80;99.90
21551;DHT22;10936;49.836;7.078;2022-09-09T07:12:53;21.90;99.90
21551;DHT22;10936;49.836;7.078;2022-09-09T07:15:19;21.90;99.90
21551;DHT22;10936;49.836;7.078;2022-09-09T07:17:45;21.90;99.80
21551;DHT22;10936;49.836;7.078;2022-09-09T07:20:11;21.90;99.70
21551;DHT22;10936;49.836;7.078;2022-09-09T07:22:37;21.90;99.90
21551;DHT22;10936;49.836;7.078;2022-09-09T07:25:03;21.90;99.90
21551;DHT22;10936;49.836;7.078;2022-09-09T07:27:29;22.00;99.80
21551;DHT22;10936;49.836;7.078;2022-09-09T07:29:55;22.00;99.80
21551;DHT22;10936;49.836;7.078;2022-09-09T07:32:21;22.10;99.70
21551;DHT22;10936;49.836;7.078;2022-09-09T07:34:46;22.10;99.70
21551;DHT22;10936;49.836;7.078;2022-09-09T07:37:13;22.10;99.60
21551;DHT22;10936;49.836;7.078;2022-09-09T07:39:39;22.20;99.60
21551;DHT22;10936;49.836;7.078;2022-09-09T07:42:05;22.30;99.50
21551;DHT22;10936;49.836;7.078;2022-09-09T07:44:31;22.40;99.30
21551;DHT22;10936;49.836;7.078;2022-09-09T07:47:01;22.40;99.20
21551;DHT22;10936;49.836;7.078;2022-09-09T07:49:27;22.50;99.00
21551;DHT22;10936;49.836;7.078;2022-09-09T07:51:52;22.60;98.90
21551;DHT22;10936;49.836;7.078;2022-09-09T07:54:19;22.60;98.70
21551;DHT22;10936;49.836;7.078;2022-09-09T07:56:46;22.60;98.40
21551;DHT22;10936;49.836;7.078;2022-09-09T07:59:12;22.60;98.30
21551;DHT22;10936;49.836;7.078;2022-09-09T08:01:49;22.60;98.20
21551;DHT22;10936;49.836;7.078;2022-09-09T08:04:21;22.70;98.20
21551;DHT22;10936;49.836;7.078;2022-09-09T08:06:52;22.70;98.00
21551;DHT22;10936;49.836;7.078;2022-09-09T08:09:19;22.60;97.60
21551;DHT22;10936;49.836;7.078;2022-09-09T08:11:46;22.70;97.90
21551;DHT22;10936;49.836;7.078;2022-09-09T08:14:12;22.70;97.80
21551;DHT22;10936;49.836;7.078;2022-09-09T08:16:44;22.70;97.60
21551;DHT22;10936;49.836;7.078;2022-09-09T08:19:10;22.70;97.60
21551;DHT22;10936;49.836;7.078;2022-09-09T08:21:38;22.70;97.50
21551;DHT22;10936;49.836;7.078;2022-09-09T08:24:08;22.70;97.60
21551;DHT22;10936;49.836;7.078;2022-09-09T08:26:38;22.70;97.50
21551;DHT22;10936;49.836;7.078;2022-09-09T08:29:06;22.70;97.50
21551;DHT22;10936;49.836;7.078;2022-09-09T08:31:34;22.70;97.50
21551;DHT22;10936;49.836;7.078;2022-09-09T08:34:01;22.70;97.50
21551;DHT22;10936;49.836;7.078;2022-09-09T08:36:30;22.70;97.50
21551;DHT22;10936;49.836;7.078;2022-09-09T08:38:57;22.70;97.50
21551;DHT22;10936;49.836;7.078;2022-09-09T08:53:16;22.80;97.30
21551;DHT22;10936;49.836;7.078;2022-09-09T09:09:00;22.90;97.00
21551;DHT22;10936;49.836;7.078;2022-09-09T09:11:26;22.80;96.90
21551;DHT22;10936;49.836;7.078;2022-09-09T09:13:58;22.80;97.10
21551;DHT22;10936;49.836;7.078;2022-09-09T09:16:42;22.80;97.10
21551;DHT22;10936;49.836;7.078;2022-09-09T09:19:14;22.70;96.90
21551;DHT22;10936;49.836;7.078;2022-09-09T09:21:45;22.70;97.20
21551;DHT22;10936;49.836;7.078;2022-09-09T09:24:30;22.70;97.10
21551;DHT22;10936;49.836;7.078;2022-09-09T09:27:12;22.70;97.10
21551;DHT22;10936;49.836;7.078;2022-09-09T09:29:40;22.70;97.10
21551;DHT22;10936;49.836;7.078;2022-09-09T09:32:11;22.60;97.10
21551;DHT22;10936;49.836;7.078;2022-09-09T09:34:39;22.70;97.10
21551;DHT22;10936;49.836;7.078;2022-09-09T09:37:17;22.70;97.20
21551;DHT22;10936;49.836;7.078;2022-09-09T09:39:45;22.70;97.20
21551;DHT22;10936;49.836;7.078;2022-09-09T09:42:16;22.70;97.20
21551;DHT22;10936;49.836;7.078;2022-09-09T09:44:43;22.70;97.20
21551;DHT22;10936;49.836;7.078;2022-09-09T09:47:20;22.70;97.20
21551;DHT22;10936;49.836;7.078;2022-09-09T09:52:23;22.70;97.30
21551;DHT22;10936;49.836;7.078;2022-09-09T09:54:50;22.70;97.50
21551;DHT22;10936;49.836;7.078;2022-09-09T09:57:16;22.70;97.50
21551;DHT22;10936;49.836;7.078;2022-09-09T09:59:43;22.70;97.50
21551;DHT22;10936;49.836;7.078;2022-09-09T10:02:16;22.70;97.50
21551;DHT22;10936;49.836;7.078;2022-09-09T10:04:42;22.70;97.50
21551;DHT22;10936;49.836;7.078;2022-09-09T10:07:19;22.80;97.50
21551;DHT22;10936;49.836;7.078;2022-09-09T10:09:52;22.80;97.80
21551;DHT22;10936;49.836;7.078;2022-09-09T10:12:47;22.80;97.80
21551;DHT22;10936;49.836;7.078;2022-09-09T10:15:34;22.80;97.90
21551;DHT22;10936;49.836;7.078;2022-09-09T10:18:35;22.80;98.10
21551;DHT22;10936;49.836;7.078;2022-09-09T10:30:19;22.90;97.90
21551;DHT22;10936;49.836;7.078;2022-09-09T10:33:49;22.90;97.70
21551;DHT22;10936;49.836;7.078;2022-09-09T10:35:52;22.90;97.60
21551;DHT22;10936;49.836;7.078;2022-09-09T10:38:34;22.90;97.70
21551;DHT22;10936;49.836;7.078;2022-09-09T10:41:19;22.90;97.80
21551;DHT22;10936;49.836;7.078;2022-09-09T10:44:12;22.90;97.80
21551;DHT22;10936;49.836;7.078;2022-09-09T10:47:53;23.00;97.70
21551;DHT22;10936;49.836;7.078;2022-09-09T10:55:52;23.00;97.60
21551;DHT22;10936;49.836;7.078;2022-09-09T10:58:31;23.00;97.70
21551;DHT22;10936;49.836;7.078;2022-09-09T11:01:07;23.00;97.60
21551;DHT22;10936;49.836;7.078;2022-09-09T11:03:36;23.00;97.60
21551;DHT22;10936;49.836;7.078;2022-09-09T11:06:09;23.00;97.60
21551;DHT22;10936;49.836;7.078;2022-09-09T11:08:39;23.00;97.50
21551;DHT22;10936;49.836;7.078;2022-09-09T11:13:52;22.90;97.40
21551;DHT22;10936;49.836;7.078;2022-09-09T11:16:59;23.00;97.50
21551;DHT22;10936;49.836;7.078;2022-09-09T11:19:41;23.00;97.40
21551;DHT22;10936;49.836;7.078;2022-09-09T11:24:58;23.00;97.60
21551;DHT22;10936;49.836;7.078;2022-09-09T11:30:22;23.10;97.40
21551;DHT22;10936;49.836;7.078;2022-09-09T11:38:21;23.10;97.20
21551;DHT22;10936;49.836;7.078;2022-09-09T11:40:55;23.10;97.10
21551;DHT22;10936;49.836;7.078;2022-09-09T11:43:33;23.10;97.00
21551;DHT22;10936;49.836;7.078;2022-09-09T11:46:05;23.10;97.00
21551;DHT22;10936;49.836;7.078;2022-09-09T11:48:38;23.10;97.00
21551;DHT22;10936;49.836;7.078;2022-09-09T11:51:25;23.10;96.80
21551;DHT22;10936;49.836;7.078;2022-09-09T11:53:55;23.10;96.70
21551;DHT22;10936;49.836;7.078;2022-09-09T11:56:26;23.10;96.70
21551;DHT22;10936;49.836;7.078;2022-09-09T11:58:59;23.10;96.60
21551;DHT22;10936;49.836;7.078;2022-09-09T12:01:33;23.10;96.60
21551;DHT22;10936;49.836;7.078;2022-09-09T12:07:26;23.20;96.40
21551;DHT22;10936;49.836;7.078;2022-09-09T12:10:52;23.20;96.30
21551;DHT22;10936;49.836;7.078;2022-09-09T12:12:38;23.20;96.30
21551;DHT22;10936;49.836;7.078;2022-09-09T12:17:42;23.20;96.30
21551;DHT22;10936;49.836;7.078;2022-09-09T12:31:08;23.10;96.80
21551;DHT22;10936;49.836;7.078;2022-09-09T12:33:37;23.10;96.80
21551;DHT22;10936;49.836;7.078;2022-09-09T12:36:11;23.10;96.90
21551;DHT22;10936;49.836;7.078;2022-09-09T12:38:40;23.10;97.00
21551;DHT22;10936;49.836;7.078;2022-09-09T12:41:15;23.10;97.10
21551;DHT22;10936;49.836;7.078;2022-09-09T12:43:45;23.10;97.10
21551;DHT22;10936;49.836;7.078;2022-09-09T12:46:42;23.10;97.20
21551;DHT22;10936;49.836;7.078;2022-09-09T12:51:53;23.20;97.70
21551;DHT22;10936;49.836;7.078;2022-09-09T12:54:19;23.10;97.60
21551;DHT22;10936;49.836;7.078;2022-09-09T12:56:46;23.10;97.70
21551;DHT22;10936;49.836;7.078;2022-09-09T12:59:25;23.10;97.70
21551;DHT22;10936;49.836;7.078;2022-09-09T13:01:58;23.10;97.80
21551;DHT22;10936;49.836;7.078;2022-09-09T13:04:24;23.10;97.80
21551;DHT22;10936;49.836;7.078;2022-09-09T13:06:49;23.20;98.00
21551;DHT22;10936;49.836;7.078;2022-09-09T13:09:18;23.20;97.80
21551;DHT22;10936;49.836;7.078;2022-09-09T13:11:50;23.20;97.90
21551;DHT22;10936;49.836;7.078;2022-09-09T13:14:31;23.20;97.90
21551;DHT22;10936;49.836;7.078;2022-09-09T13:17:02;23.20;97.70
21551;DHT22;10936;49.836;7.078;2022-09-09T13:19:36;23.20;97.60
21551;DHT22;10936;49.836;7.078;2022-09-09T13:24:45;23.30;97.40
21551;DHT22;10936;49.836;7.078;2022-09-09T13:28:00;23.30;97.40
21551;DHT22;10936;49.836;7.078;2022-09-09T13:30:29;23.30;97.40
21551;DHT22;10936;49.836;7.078;2022-09-09T13:33:06;23.30;97.30
21551;DHT22;10936;49.836;7.078;2022-09-09T13:35:33;23.20;97.20
21551;DHT22;10936;49.836;7.078;2022-09-09T13:38:06;23.30;97.20
21551;DHT22;10936;49.836;7.078;2022-09-09T13:40:33;23.30;97.10
21551;DHT22;10936;49.836;7.078;2022-09-09T13:42:59;23.30;97.10
21551;DHT22;10936;49.836;7.078;2022-09-09T13:45:26;23.30;97.00
21551;DHT22;10936;49.836;7.078;2022-09-09T13:47:53;23.30;97.00
21551;DHT22;10936;49.836;7.078;2022-09-09T13:50:28;23.30;97.00
21551;DHT22;10936;49.836;7.078;2022-09-09T13:52:58;23.20;97.00
21551;DHT22;10936;49.836;7.078;2022-09-09T13:55:26;23.30;96.90
21551;DHT22;10936;49.836;7.078;2022-09-09T13:57:56;23.20;96.80
21551;DHT22;10936;49.836;7.078;2022-09-09T14:00:22;23.30;96.70
21551;DHT22;10936;49.836;7.078;2022-09-09T14:02:49;23.30;96.70
21551;DHT22;10936;49.836;7.078;2022-09-09T14:05:16;23.30;96.70
21551;DHT22;10936;49.836;7.078;2022-09-09T14:07:42;23.30;96.50
21551;DHT22;10936;49.836;7.078;2022-09-09T14:10:10;23.30;96.40
21551;DHT22;10936;49.836;7.078;2022-09-09T14:12:35;23.30;96.50
21551;DHT22;10936;49.836;7.078;2022-09-09T14:15:06;23.30;96.50
21551;DHT22;10936;49.836;7.078;2022-09-09T14:17:33;23.30;96.50
21551;DHT22;10936;49.836;7.078;2022-09-09T14:19:59;23.30;96.60
21551;DHT22;10936;49.836;7.078;2022-09-09T14:22:25;23.30;96.50
21551;DHT22;10936;49.836;7.078;2022-09-09T14:24:51;23.30;96.60
21551;DHT22;10936;49.836;7.078;2022-09-09T14:27:17;23.30;96.60
21551;DHT22;10936;49.836;7.078;2022-09-09T14:29:44;23.30;96.60
21551;DHT22;10936;49.836;7.078;2022-09-09T14:32:10;23.30;96.60
21551;DHT22;10936;49.836;7.078;2022-09-09T14:34:36;23.30;96.50
21551;DHT22;10936;49.836;7.078;2022-09-09T14:37:02;23.30;96.50
21551;DHT22;10936;49.836;7.078;2022-09-09T14:39:28;23.30;96.50
21551;DHT22;10936;49.836;7.078;2022-09-09T14:41:53;23.20;96.60
21551;DHT22;10936;49.836;7.078;2022-09-09T14:44:19;23.20;96.60
21551;DHT22;10936;49.836;7.078;2022-09-09T14:46:44;23.10;96.70
21551;DHT22;10936;49.836;7.078;2022-09-09T14:49:10;23.20;96.70
21551;DHT22;10936;49.836;7.078;2022-09-09T14:51:38;23.10;96.60
21551;DHT22;10936;49.836;7.078;2022-09-09T14:54:04;23.10;96.80
21551;DHT22;10936;49.836;7.078;2022-09-09T14:56:32;23.00;96.90
21551;DHT22;10936;49.836;7.078;2022-09-09T14:58:59;23.00;96.90
21551;DHT22;10936;49.836;7.078;2022-09-09T15:01:30;23.00;96.90
21551;DHT22;10936;49.836;7.078;2022-09-09T15:04:01;22.90;96.80
21551;DHT22;10936;49.836;7.078;2022-09-09T15:06:29;23.00;96.80
21551;DHT22;10936;49.836;7.078;2022-09-09T15:08:56;23.00;96.70
21551;DHT22;10936;49.836;7.078;2022-09-09T15:11:30;22.90;96.70
21551;DHT22;10936;49.836;7.078;2022-09-09T15:13:57;23.00;96.80
21551;DHT22;10936;49.836;7.078;2022-09-09T15:16:26;22.90;96.80
21551;DHT22;10936;49.836;7.078;2022-09-09T15:18:55;23.00;96.80
21551;DHT22;10936;49.836;7.078;2022-09-09T15:21:24;23.00;96.70
21551;DHT22;10936;49.836;7.078;2022-09-09T15:23:50;23.00;96.70
21551;DHT22;10936;49.836;7.078;2022-09-09T15:26:17;23.00;96.90
21551;DHT22;10936;49.836;7.078;2022-09-09T15:28:44;23.00;96.70
21551;DHT22;10936;49.836;7.078;2022-09-09T15:31:19;23.00;96.80
21551;DHT22;10936;49.836;7.078;2022-09-09T15:33:51;23.00;96.80
21551;DHT22;10936;49.836;7.078;2022-09-09T15:36:25;22.90;96.90
21551;DHT22;10936;49.836;7.078;2022-09-09T15:38:52;22.80;97.10
21551;DHT22;10936;49.836;7.078;2022-09-09T15:41:19;22.70;97.20
21551;DHT22;10936;49.836;7.078;2022-09-09T15:43:50;22.70;97.20
21551;DHT22;10936;49.836;7.078;2022-09-09T15:48:45;22.70;97.20
21551;DHT22;10936;49.836;7.078;2022-09-09T15:51:11;22.70;97.30
21551;DHT22;10936;49.836;7.078;2022-09-09T15:53:37;22.60;97.50
21551;DHT22;10936;49.836;7.078;2022-09-09T15:56:08;22.60;97.50
21551;DHT22;10936;49.836;7.078;2022-09-09T15:58:34;22.60;97.60
21551;DHT22;10936;49.836;7.078;2022-09-09T16:01:08;22.50;97.50
21551;DHT22;10936;49.836;7.078;2022-09-09T16:03:38;22.50;97.70
21551;DHT22;10936;49.836;7.078;2022-09-09T16:06:05;22.50;97.60
21551;DHT22;10936;49.836;7.078;2022-09-09T16:08:35;22.60;97.60
21551;DHT22;10936;49.836;7.078;2022-09-09T16:11:08;22.60;97.60
21551;DHT22;10936;49.836;7.078;2022-09-09T16:13:38;22.60;97.60
21551;DHT22;10936;49.836;7.078;2022-09-09T16:16:05;22.50;97.60
21551;DHT22;10936;49.836;7.078;2022-09-09T16:18:42;22.60;97.70
21551;DHT22;10936;49.836;7.078;2022-09-09T16:21:23;22.60;97.60
21551;DHT22;10936;49.836;7.078;2022-09-09T16:23:50;22.60;97.50
21551;DHT22;10936;49.836;7.078;2022-09-09T16:26:17;22.70;97.50
21551;DHT22;10936;49.836;7.078;2022-09-09T16:28:43;22.70;97.40
21551;DHT22;10936;49.836;7.078;2022-09-09T16:31:15;22.80;97.30
21551;DHT22;10936;49.836;7.078;2022-09-09T16:33:42;22.80;97.30
21551;DHT22;10936;49.836;7.078;2022-09-09T16:36:09;22.80;97.30
21551;DHT22;10936;49.836;7.078;2022-09-09T16:38:36;22.80;97.30
21551;DHT22;10936;49.836;7.078;2022-09-09T16:41:03;22.80;97.50
21551;DHT22;10936;49.836;7.078;2022-09-09T16:43:34;22.70;97.30
21551;DHT22;10936;49.836;7.078;2022-09-09T16:46:01;22.70;97.30
21551;DHT22;10936;49.836;7.078;2022-09-09T16:48:31;22.70;97.20
21551;DHT22;10936;49.836;7.078;2022-09-09T16:51:12;22.70;97.40
21551;DHT22;10936;49.836;7.078;2022-09-09T16:53:39;22.70;97.30
21551;DHT22;10936;49.836;7.078;2022-09-09T16:56:09;22.60;97.30
21551;DHT22;10936;49.836;7.078;2022-09-09T16:58:35;22.60;97.30
21551;DHT22;10936;49.836;7.078;2022-09-09T17:01:02;22.50;97.40
21551;DHT22;10936;49.836;7.078;2022-09-09T17:03:29;22.40;97.50
21551;DHT22;10936;49.836;7.078;2022-09-09T17:05:55;22.40;97.70
21551;DHT22;10936;49.836;7.078;2022-09-09T17:08:23;22.40;97.80
21551;DHT22;10936;49.836;7.078;2022-09-09T17:10:49;22.30;97.80
21551;DHT22;10936;49.836;7.078;2022-09-09T17:13:16;22.30;97.80
21551;DHT22;10936;49.836;7.078;2022-09-09T17:15:44;22.20;97.90
21551;DHT22;10936;49.836;7.078;2022-09-09T17:18:11;22.20;98.00
21551;DHT22;10936;49.836;7.078;2022-09-09T17:20:37;22.10;98.00
21551;DHT22;10936;49.836;7.078;2022-09-09T17:23:04;22.10;98.00
21551;DHT22;10936;49.836;7.078;2022-09-09T17:25:30;22.20;97.80
21551;DHT22;10936;49.836;7.078;2022-09-09T17:27:57;22.20;97.80
21551;DHT22;10936;49.836;7.078;2022-09-09T17:30:23;22.30;97.80
21551;DHT22;10936;49.836;7.078;2022-09-09T17:32:49;22.30;97.70
21551;DHT22;10936;49.836;7.078;2022-09-09T17:35:15;22.30;97.70
21551;DHT22;10936;49.836;7.078;2022-09-09T17:37:41;22.40;97.70
21551;DHT22;10936;49.836;7.078;2022-09-09T17:40:07;22.40;97.70
21551;DHT22;10936;49.836;7.078;2022-09-09T17:42:34;22.40;97.60
21551;DHT22;10936;49.836;7.078;2022-09-09T17:45:00;22.40;97.60
21551;DHT22;10936;49.836;7.078;2022-09-09T17:47:27;22.50;97.50
21551;DHT22;10936;49.836;7.078;2022-09-09T17:49:53;22.40;97.60
21551;DHT22;10936;49.836;7.078;2022-09-09T17:52:20;22.30;97.80
21551;DHT22;10936;49.836;7.078;2022-09-09T17:54:46;22.20;98.20
21551;DHT22;10936;49.836;7.078;2022-09-09T17:57:12;22.20;97.90
21551;DHT22;10936;49.836;7.078;2022-09-09T17:59:37;22.10;98.00